Time;durP1;ratioP1;P1;durP2;ratioP2;P2;SDS_P1;SDS_P2;PMS_P1;PMS_P2;Temp;Humidity;BMP_temperature;BMP_pressure;BME280_temperature;BME280_humidity;BME280_pressure;Samples;Min_cycle;Max_cycle;Signal;HPM_P1;HPM_P2
2024/01/11 00:01:33;;;;;;;38.75;25.67;;;;;;;;;;5075449;28;20075;-71
2024/01/11 00:03:59;;;;;;;38.30;24.98;;;;;;;;;;5075203;28;20044;-71
2024/01/11 00:06:25;;;;;;;36.38;24.35;;;;;;;;;;5075516;28;20043;-71
2024/01/11 00:08:51;;;;;;;35.40;24.17;;;;;;;;;;5075426;28;20085;-71
2024/01/11 00:11:17;;;;;;;36.75;25.23;;;;;;;;;;5076898;28;20040;-71
2024/01/11 00:13:43;;;;;;;39.13;26.05;;;;;;;;;;5075428;28;20036;-71
2024/01/11 00:16:09;;;;;;;40.25;25.20;;;;;;;;;;5076693;28;20052;-71
2024/01/11 00:18:35;;;;;;;37.05;24.70;;;;;;;;;;5075372;28;20150;-71
2024/01/11 00:21:01;;;;;;;38.00;25.27;;;;;;;;;;5075064;28;20045;-71
2024/01/11 00:23:27;;;;;;;36.05;23.63;;;;;;;;;;5075027;28;20036;-71
2024/01/11 00:25:53;;;;;;;36.47;25.25;;;;;;;;;;5074985;28;20047;-71
2024/01/11 00:28:19;;;;;;;39.35;26.70;;;;;;;;;;5075214;28;20083;-71
2024/01/11 00:30:45;;;;;;;37.55;25.52;;;;;;;;;;5076515;28;20405;-71
2024/01/11 00:33:11;;;;;;;37.97;25.58;;;;;;;;;;5074815;28;20040;-71
2024/01/11 00:35:37;;;;;;;37.80;25.27;;;;;;;;;;5076042;28;20581;-71
2024/01/11 00:38:03;;;;;;;41.53;26.55;;;;;;;;;;5058167;28;20123;-71
2024/01/11 00:40:29;;;;;;;39.67;25.73;;;;;;;;;;5074754;28;20451;-71
2024/01/11 00:42:55;;;;;;;38.63;24.55;;;;;;;;;;5074633;28;20036;-71
2024/01/11 00:45:21;;;;;;;39.42;25.38;;;;;;;;;;5074585;28;20045;-71
2024/01/11 00:47:47;;;;;;;40.33;25.23;;;;;;;;;;5076137;28;20076;-71
2024/01/11 00:50:13;;;;;;;36.72;25.20;;;;;;;;;;5074637;28;20032;-71
2024/01/11 00:52:39;;;;;;;41.78;26.27;;;;;;;;;;5076063;28;20051;-71
2024/01/11 00:55:05;;;;;;;42.38;27.42;;;;;;;;;;5075019;28;20044;-71
2024/01/11 00:57:31;;;;;;;41.25;25.92;;;;;;;;;;5074095;28;20128;-71
2024/01/11 00:59:57;;;;;;;40.03;25.80;;;;;;;;;;5074722;28;20094;-71
2024/01/11 01:02:23;;;;;;;40.25;26.10;;;;;;;;;;5074305;28;20516;-71
2024/01/11 01:04:49;;;;;;;40.63;27.45;;;;;;;;;;5074429;28;20045;-71
2024/01/11 01:07:15;;;;;;;37.85;24.65;;;;;;;;;;5074264;28;20040;-71
2024/01/11 01:09:41;;;;;;;37.83;24.88;;;;;;;;;;5075787;28;20036;-71
2024/01/11 01:12:07;;;;;;;43.33;26.92;;;;;;;;;;5074206;28;20256;-71
2024/01/11 01:14:33;;;;;;;41.50;26.27;;;;;;;;;;5074051;28;20037;-71
2024/01/11 01:16:59;;;;;;;41.60;26.85;;;;;;;;;;5075663;28;20116;-71
2024/01/11 01:19:25;;;;;;;41.80;26.65;;;;;;;;;;5074035;28;20118;-71
2024/01/11 01:21:51;;;;;;;40.67;26.15;;;;;;;;;;5075449;28;20037;-71
2024/01/11 01:24:17;;;;;;;39.97;26.67;;;;;;;;;;5073872;28;20041;-71
2024/01/11 01:26:43;;;;;;;41.67;26.70;;;;;;;;;;5073928;28;20134;-71
2024/01/11 01:29:09;;;;;;;42.92;26.70;;;;;;;;;;5074090;28;20047;-71
2024/01/11 01:31:37;;;;;;;39.40;25.50;;;;;;;;;;5073846;28;20047;-71
2024/01/11 01:34:04;;;;;;;41.13;26.63;;;;;;;;;;5075238;28;20076;-71
2024/01/11 01:36:30;;;;;;;40.78;26.77;;;;;;;;;;5075256;28;20048;-71
2024/01/11 01:38:56;;;;;;;41.75;26.85;;;;;;;;;;5074846;28;20549;-71
2024/01/11 01:41:22;;;;;;;42.60;27.05;;;;;;;;;;5057047;28;20177;-71
2024/01/11 01:43:48;;;;;;;47.70;27.50;;;;;;;;;;5073423;28;20413;-71
2024/01/11 01:46:20;;;;;;;41.13;26.48;;;;;;;;;;5073784;28;20123;-71
2024/01/11 01:48:46;;;;;;;39.72;25.95;;;;;;;;;;5073519;28;20032;-71
2024/01/11 01:51:12;;;;;;;42.10;26.70;;;;;;;;;;5073409;28;20067;-71
2024/01/11 01:53:38;;;;;;;37.08;25.17;;;;;;;;;;5074792;28;20044;-71
2024/01/11 01:56:04;;;;;;;42.08;26.05;;;;;;;;;;5073624;28;20408;-71
2024/01/11 01:58:31;;;;;;;42.42;26.02;;;;;;;;;;5073588;28;20048;-71
2024/01/11 02:00:57;;;;;;;40.47;26.35;;;;;;;;;;5073140;28;20413;-71
2024/01/11 02:03:24;;;;;;;42.65;26.70;;;;;;;;;;5073011;28;20037;-71
2024/01/11 02:05:51;;;;;;;41.08;26.17;;;;;;;;;;5073455;28;20029;-71
2024/01/11 02:08:20;;;;;;;40.13;26.55;;;;;;;;;;5072958;28;20235;-71
2024/01/11 02:10:46;;;;;;;40.90;26.08;;;;;;;;;;5073381;28;20105;-71
2024/01/11 02:13:13;;;;;;;43.63;26.63;;;;;;;;;;5073292;28;20086;-71
2024/01/11 02:15:39;;;;;;;42.17;27.23;;;;;;;;;;5073177;28;20037;-71
2024/01/11 02:18:05;;;;;;;41.78;26.90;;;;;;;;;;5072891;28;20513;-71
2024/01/11 02:20:31;;;;;;;42.28;27.33;;;;;;;;;;5074937;28;20068;-71
2024/01/11 02:23:01;;;;;;;37.72;25.10;;;;;;;;;;5056154;28;20090;-71
2024/01/11 02:25:28;;;;;;;42.58;26.75;;;;;;;;;;5073091;28;20058;-71
2024/01/11 02:27:53;;;;;;;45.22;27.30;;;;;;;;;;5072962;28;20039;-71
2024/01/11 02:30:19;;;;;;;44.67;28.17;;;;;;;;;;5072693;28;20531;-71
2024/01/11 02:32:49;;;;;;;44.28;26.35;;;;;;;;;;5073871;28;20040;-71
2024/01/11 02:35:15;;;;;;;40.97;25.83;;;;;;;;;;5072844;28;20036;-71
2024/01/11 02:37:42;;;;;;;42.67;27.05;;;;;;;;;;5072457;28;20041;-71
2024/01/11 02:40:08;;;;;;;42.58;27.60;;;;;;;;;;5072702;28;20425;-71
2024/01/11 02:42:37;;;;;;;45.15;26.75;;;;;;;;;;5072386;28;20044;-71
2024/01/11 02:45:04;;;;;;;46.58;28.17;;;;;;;;;;5073821;28;20040;-71
2024/01/11 02:47:30;;;;;;;40.15;26.70;;;;;;;;;;5072355;28;20079;-71
2024/01/11 02:49:56;;;;;;;42.83;26.63;;;;;;;;;;5073949;28;20064;-71
2024/01/11 02:52:23;;;;;;;41.33;26.92;;;;;;;;;;5072559;28;20406;-71
2024/01/11 02:54:49;;;;;;;43.83;28.23;;;;;;;;;;5072276;28;20044;-71
2024/01/11 02:57:15;;;;;;;39.25;25.75;;;;;;;;;;5072275;28;20047;-71
2024/01/11 02:59:41;;;;;;;45.53;27.77;;;;;;;;;;5072470;28;20040;-71
2024/01/11 03:02:07;;;;;;;42.05;27.45;;;;;;;;;;5072353;28;20037;-71
2024/01/11 03:04:33;;;;;;;44.03;26.98;;;;;;;;;;5071945;28;20059;-71
2024/01/11 03:06:59;;;;;;;42.95;28.20;;;;;;;;;;5073647;28;20047;-71
2024/01/11 03:09:25;;;;;;;44.22;28.15;;;;;;;;;;5072167;28;20489;-71
2024/01/11 03:11:51;;;;;;;45.47;28.77;;;;;;;;;;5072304;28;20048;-71
2024/01/11 03:14:18;;;;;;;45.05;28.30;;;;;;;;;;5072240;28;20040;-71
2024/01/11 03:16:44;;;;;;;43.28;28.88;;;;;;;;;;5072331;28;20091;-71
2024/01/11 03:19:09;;;;;;;43.85;27.60;;;;;;;;;;5072386;28;20040;-71
2024/01/11 03:21:35;;;;;;;43.53;28.42;;;;;;;;;;5071805;28;20040;-71
2024/01/11 03:24:01;;;;;;;43.83;28.42;;;;;;;;;;5072026;28;20040;-71
2024/01/11 03:26:27;;;;;;;44.78;28.35;;;;;;;;;;5071942;28;20036;-71
2024/01/11 03:28:53;;;;;;;43.40;28.13;;;;;;;;;;5073356;28;20112;-71
2024/01/11 03:31:19;;;;;;;46.03;28.30;;;;;;;;;;5073320;28;20040;-71
2024/01/11 03:33:45;;;;;;;41.88;26.48;;;;;;;;;;5071915;28;20053;-71
2024/01/11 03:36:12;;;;;;;42.85;27.52;;;;;;;;;;5071750;28;20041;-71
2024/01/11 03:38:38;;;;;;;45.15;28.05;;;;;;;;;;5055029;28;20059;-71
2024/01/11 03:41:08;;;;;;;43.05;27.38;;;;;;;;;;5071677;28;20070;-71
2024/01/11 03:43:34;;;;;;;45.30;28.65;;;;;;;;;;5072059;28;20033;-71
2024/01/11 03:46:00;;;;;;;48.08;28.83;;;;;;;;;;5071667;28;20127;-71
2024/01/11 03:48:26;;;;;;;47.38;29.73;;;;;;;;;;5073214;28;20075;-71
2024/01/11 03:50:52;;;;;;;45.80;29.70;;;;;;;;;;5071643;28;20454;-71
2024/01/11 03:53:18;;;;;;;46.50;29.05;;;;;;;;;;5071525;28;20048;-71
2024/01/11 03:55:44;;;;;;;44.22;28.38;;;;;;;;;;5071675;28;20131;-71
2024/01/11 03:58:10;;;;;;;45.92;29.05;;;;;;;;;;5073092;28;20041;-71
2024/01/11 04:00:36;;;;;;;49.65;28.70;;;;;;;;;;5073108;28;20051;-71
2024/01/11 04:03:02;;;;;;;44.97;29.15;;;;;;;;;;5072763;28;20539;-71
2024/01/11 04:05:28;;;;;;;49.42;28.35;;;;;;;;;;5071833;28;20051;-71
2024/01/11 04:07:54;;;;;;;45.03;28.52;;;;;;;;;;5072749;28;20497;-71
2024/01/11 04:10:20;;;;;;;42.72;26.98;;;;;;;;;;5071557;28;20043;-71
2024/01/11 04:12:46;;;;;;;44.22;26.75;;;;;;;;;;5071500;28;20055;-71
2024/01/11 04:15:13;;;;;;;43.30;27.65;;;;;;;;;;5071408;28;20119;-71
2024/01/11 04:17:39;;;;;;;44.72;27.60;;;;;;;;;;5071379;28;20059;-71
2024/01/11 04:20:08;;;;;;;43.05;27.63;;;;;;;;;;5071692;28;20127;-71
2024/01/11 04:22:34;;;;;;;45.75;28.35;;;;;;;;;;5071320;28;20053;-71
2024/01/11 04:25:00;;;;;;;42.00;27.92;;;;;;;;;;5072805;28;20032;-71
2024/01/11 04:27:26;;;;;;;45.22;27.77;;;;;;;;;;5054640;28;20119;-71
2024/01/11 04:29:52;;;;;;;47.88;28.17;;;;;;;;;;5072032;28;20036;-71
2024/01/11 04:32:18;;;;;;;47.10;27.83;;;;;;;;;;5074985;28;20113;-71
2024/01/11 04:34:45;;;;;;;44.17;28.02;;;;;;;;;;5075067;28;20531;-71
2024/01/11 04:37:11;;;;;;;44.88;28.02;;;;;;;;;;5074853;28;20044;-71
2024/01/11 04:39:36;;;;;;;47.05;29.42;;;;;;;;;;5074762;28;20041;-71
2024/01/11 04:42:03;;;;;;;44.33;28.52;;;;;;;;;;5074725;28;20068;-71
2024/01/11 04:44:29;;;;;;;47.30;29.58;;;;;;;;;;5074690;28;20036;-71
2024/01/11 04:46:55;;;;;;;43.28;27.15;;;;;;;;;;5074970;28;20454;-71
2024/01/11 04:49:21;;;;;;;47.03;27.75;;;;;;;;;;5058050;28;20044;-71
2024/01/11 04:51:47;;;;;;;44.83;28.40;;;;;;;;;;5074589;28;20043;-71
2024/01/11 04:54:13;;;;;;;45.83;29.30;;;;;;;;;;5074813;28;20036;-71
2024/01/11 04:56:39;;;;;;;48.72;29.63;;;;;;;;;;5076057;28;20055;-71
2024/01/11 04:59:05;;;;;;;47.03;28.63;;;;;;;;;;5075913;28;20111;-71
2024/01/11 05:01:31;;;;;;;46.42;29.23;;;;;;;;;;5057924;28;20043;-71
2024/01/11 05:03:57;;;;;;;48.28;28.75;;;;;;;;;;5074432;28;20436;-71
2024/01/11 05:06:24;;;;;;;45.97;28.55;;;;;;;;;;5074580;28;20033;-71
2024/01/11 05:08:52;;;;;;;46.30;28.73;;;;;;;;;;5074254;28;20506;-71
2024/01/11 05:11:18;;;;;;;46.50;28.25;;;;;;;;;;5074241;28;20524;-71
2024/01/11 05:13:47;;;;;;;43.58;28.50;;;;;;;;;;5074128;28;20044;-71
2024/01/11 05:16:26;;;;;;;47.80;29.02;;;;;;;;;;5074434;28;20200;-71
2024/01/11 05:18:52;;;;;;;47.20;29.88;;;;;;;;;;5057373;28;20040;-71
2024/01/11 05:21:19;;;;;;;49.92;30.60;;;;;;;;;;5073946;28;20527;-71
2024/01/11 05:23:45;;;;;;;49.90;30.20;;;;;;;;;;5075432;28;20040;-71
2024/01/11 05:26:11;;;;;;;48.38;29.88;;;;;;;;;;5074037;28;20062;-71
2024/01/11 05:28:38;;;;;;;50.58;30.80;;;;;;;;;;5073903;28;20079;-71
2024/01/11 05:31:06;;;;;;;47.20;29.13;;;;;;;;;;5074152;28;20033;-71
2024/01/11 05:33:32;;;;;;;49.67;30.60;;;;;;;;;;5073817;28;20147;-71
2024/01/11 05:35:58;;;;;;;49.58;29.95;;;;;;;;;;5057079;28;20107;-71
2024/01/11 05:38:24;;;;;;;52.50;32.65;;;;;;;;;;5073664;28;20561;-71
2024/01/11 05:40:50;;;;;;;49.53;30.27;;;;;;;;;;5075075;28;20051;-71
2024/01/11 05:43:16;;;;;;;48.25;31.20;;;;;;;;;;5074281;28;20493;-71
2024/01/11 05:45:42;;;;;;;48.10;30.70;;;;;;;;;;5073851;28;20158;-71
2024/01/11 05:48:08;;;;;;;48.38;29.90;;;;;;;;;;5075070;28;20390;-71
2024/01/11 05:50:34;;;;;;;51.40;31.60;;;;;;;;;;5073446;28;20048;-71
2024/01/11 05:53:00;;;;;;;49.72;31.20;;;;;;;;;;5073364;28;20076;-71
2024/01/11 05:55:26;;;;;;;49.40;30.75;;;;;;;;;;5073323;28;20043;-71
2024/01/11 05:57:52;;;;;;;51.63;31.00;;;;;;;;;;5073600;28;20040;-71
2024/01/11 06:00:18;;;;;;;49.05;30.10;;;;;;;;;;5073318;28;20596;-71
2024/01/11 06:02:44;;;;;;;50.33;30.10;;;;;;;;;;5074468;28;20520;-71
2024/01/11 06:05:12;;;;;;;57.55;33.72;;;;;;;;;;5073125;28;20037;-71
2024/01/11 06:07:38;;;;;;;52.60;32.47;;;;;;;;;;5074436;28;20413;-71
2024/01/11 06:10:05;;;;;;;51.63;31.45;;;;;;;;;;5073096;28;20043;-71
2024/01/11 06:12:32;;;;;;;48.90;30.75;;;;;;;;;;5073061;28;20051;-71
2024/01/11 06:14:58;;;;;;;47.80;30.98;;;;;;;;;;5073177;28;20044;-71
2024/01/11 06:17:24;;;;;;;53.63;32.30;;;;;;;;;;5072935;28;20101;-71
2024/01/11 06:19:50;;;;;;;49.70;30.65;;;;;;;;;;5074430;28;20044;-71
2024/01/11 06:22:16;;;;;;;50.03;31.83;;;;;;;;;;5056138;28;20556;-70
2024/01/11 06:24:42;;;;;;;51.00;30.98;;;;;;;;;;5072677;28;20076;-70
2024/01/11 06:27:08;;;;;;;48.90;30.50;;;;;;;;;;5072739;28;20052;-70
2024/01/11 06:29:34;;;;;;;50.28;30.67;;;;;;;;;;5072764;28;20041;-70
2024/01/11 06:32:00;;;;;;;50.50;30.30;;;;;;;;;;5074151;28;20052;-70
2024/01/11 06:34:26;;;;;;;44.72;29.38;;;;;;;;;;5072600;28;20040;-70
2024/01/11 06:36:52;;;;;;;50.17;29.92;;;;;;;;;;5074090;28;20043;-70
2024/01/11 06:39:18;;;;;;;48.15;30.42;;;;;;;;;;5073089;28;20468;-71
2024/01/11 06:41:44;;;;;;;47.92;29.42;;;;;;;;;;5072702;28;20056;-71
2024/01/11 06:44:10;;;;;;;50.00;30.88;;;;;;;;;;5072441;28;20429;-71
2024/01/11 06:46:38;;;;;;;46.22;29.85;;;;;;;;;;5072489;28;20106;-71
2024/01/11 06:49:05;;;;;;;46.83;30.02;;;;;;;;;;5072388;28;20036;-71
2024/01/11 06:51:31;;;;;;;47.78;29.63;;;;;;;;;;5072751;28;20032;-71
2024/01/11 06:53:59;;;;;;;47.33;29.88;;;;;;;;;;5073885;28;20044;-71
2024/01/11 06:56:25;;;;;;;46.88;28.77;;;;;;;;;;5073990;28;20079;-71
2024/01/11 06:58:52;;;;;;;48.78;30.35;;;;;;;;;;5073531;28;20102;-71
2024/01/11 07:01:18;;;;;;;45.83;29.35;;;;;;;;;;5073681;28;20047;-71
2024/01/11 07:03:44;;;;;;;53.92;31.13;;;;;;;;;;5073350;28;20047;-71
2024/01/11 07:06:10;;;;;;;46.90;30.75;;;;;;;;;;5072098;28;20036;-71
2024/01/11 07:08:37;;;;;;;50.13;30.73;;;;;;;;;;5073534;28;20040;-71
2024/01/11 07:11:03;;;;;;;50.70;31.90;;;;;;;;;;5072290;28;20098;-71
2024/01/11 07:13:32;;;;;;;53.58;32.17;;;;;;;;;;5055588;28;20124;-72
2024/01/11 07:15:58;;;;;;;49.67;30.05;;;;;;;;;;5071915;28;20047;-72
2024/01/11 07:18:25;;;;;;;46.67;29.85;;;;;;;;;;5073222;28;20515;-72
2024/01/11 07:20:51;;;;;;;50.72;33.22;;;;;;;;;;5071928;28;20033;-72
2024/01/11 07:23:17;;;;;;;49.95;30.73;;;;;;;;;;5072149;28;20037;-72
2024/01/11 07:25:44;;;;;;;51.38;30.33;;;;;;;;;;5072207;28;20039;-72
2024/01/11 07:28:10;;;;;;;51.55;30.92;;;;;;;;;;5071914;28;20094;-72
2024/01/11 07:30:36;;;;;;;45.50;29.80;;;;;;;;;;5071933;28;20037;-72
2024/01/11 07:33:02;;;;;;;49.03;30.65;;;;;;;;;;5071698;28;20044;-72
2024/01/11 07:35:28;;;;;;;51.85;29.85;;;;;;;;;;5073363;28;20037;-72
2024/01/11 07:37:54;;;;;;;48.10;31.33;;;;;;;;;;5073238;28;20075;-72
2024/01/11 07:40:20;;;;;;;48.22;30.60;;;;;;;;;;5073339;28;20547;-72
2024/01/11 07:42:46;;;;;;;47.30;30.42;;;;;;;;;;5072057;28;20137;-72
2024/01/11 07:45:12;;;;;;;49.63;29.63;;;;;;;;;;5073130;28;20088;-72
2024/01/11 07:47:38;;;;;;;49.75;30.80;;;;;;;;;;5071896;28;20557;-72
2024/01/11 07:50:06;;;;;;;50.45;31.42;;;;;;;;;;5071981;28;20055;-72
2024/01/11 07:52:32;;;;;;;49.17;31.20;;;;;;;;;;5071848;28;20127;-72
2024/01/11 07:55:06;;;;;;;49.75;31.30;;;;;;;;;;5073169;28;20069;-72
2024/01/11 07:57:32;;;;;;;48.13;31.33;;;;;;;;;;5071563;28;20049;-72
2024/01/11 07:59:59;;;;;;;47.80;30.83;;;;;;;;;;5073030;28;20040;-72
2024/01/11 08:02:25;;;;;;;49.33;31.27;;;;;;;;;;5071382;28;20040;-72
2024/01/11 08:04:51;;;;;;;47.38;30.30;;;;;;;;;;5073394;28;20032;-72
2024/01/11 08:07:17;;;;;;;49.50;30.88;;;;;;;;;;5075403;28;20119;-72
2024/01/11 08:09:45;;;;;;;48.97;29.55;;;;;;;;;;5076547;28;20490;-72
2024/01/11 08:12:17;;;;;;;46.03;29.70;;;;;;;;;;5075361;28;20044;-72
2024/01/11 08:14:43;;;;;;;46.40;30.83;;;;;;;;;;5075349;28;20094;-72
2024/01/11 08:17:09;;;;;;;49.17;30.55;;;;;;;;;;5076858;28;20409;-72
2024/01/11 08:19:35;;;;;;;46.50;30.45;;;;;;;;;;5075494;28;20044;-72
2024/01/11 08:22:02;;;;;;;49.83;30.65;;;;;;;;;;5075497;28;20043;-72
2024/01/11 08:24:28;;;;;;;52.38;31.70;;;;;;;;;;5076693;28;20049;-72
2024/01/11 08:26:54;;;;;;;50.60;31.73;;;;;;;;;;5076681;28;20037;-72
2024/01/11 08:29:22;;;;;;;44.75;29.80;;;;;;;;;;5058450;28;20555;-72
2024/01/11 08:31:48;;;;;;;45.65;30.00;;;;;;;;;;5076191;28;20405;-72
2024/01/11 08:34:14;;;;;;;52.95;32.33;;;;;;;;;;5076467;28;20041;-72
2024/01/11 08:36:40;;;;;;;49.03;30.98;;;;;;;;;;5076514;28;20090;-72
2024/01/11 08:39:06;;;;;;;49.70;30.67;;;;;;;;;;5076158;28;20044;-72
2024/01/11 08:41:32;;;;;;;46.17;29.60;;;;;;;;;;5058434;28;20037;-72
2024/01/11 08:43:59;;;;;;;51.85;31.52;;;;;;;;;;5074678;28;20413;-72
2024/01/11 08:46:28;;;;;;;50.47;31.63;;;;;;;;;;5075115;28;20029;-72
2024/01/11 08:48:57;;;;;;;50.25;31.80;;;;;;;;;;5074671;28;20040;-72
2024/01/11 08:51:23;;;;;;;50.30;30.42;;;;;;;;;;5076216;28;20036;-72
2024/01/11 08:53:49;;;;;;;52.13;31.92;;;;;;;;;;5057923;28;20516;-71
2024/01/11 08:56:16;;;;;;;49.05;31.77;;;;;;;;;;5074591;28;20070;-72
2024/01/11 08:58:42;;;;;;;49.30;30.63;;;;;;;;;;5074457;28;20511;-72
2024/01/11 09:01:08;;;;;;;50.58;33.00;;;;;;;;;;5074378;28;20032;-72
2024/01/11 09:03:38;;;;;;;52.15;31.80;;;;;;;;;;5074211;28;20044;-72
2024/01/11 09:06:04;;;;;;;53.80;32.65;;;;;;;;;;5057892;28;20401;-72
2024/01/11 09:08:30;;;;;;;53.60;33.63;;;;;;;;;;5074587;28;20485;-72
2024/01/11 09:10:58;;;;;;;48.17;30.92;;;;;;;;;;5075849;28;20068;-72
2024/01/11 09:13:25;;;;;;;52.00;33.13;;;;;;;;;;5074167;28;20041;-72
2024/01/11 09:15:52;;;;;;;49.78;32.92;;;;;;;;;;5075233;28;20047;-72
2024/01/11 09:18:18;;;;;;;52.28;31.48;;;;;;;;;;5074971;28;20119;-72
2024/01/11 09:20:44;;;;;;;50.53;31.38;;;;;;;;;;5075283;28;20440;-72
2024/01/11 09:23:10;;;;;;;48.28;30.60;;;;;;;;;;5057175;28;20515;-72
2024/01/11 09:25:36;;;;;;;48.78;31.27;;;;;;;;;;5075512;28;20037;-72
2024/01/11 09:28:02;;;;;;;46.65;30.65;;;;;;;;;;5075461;28;20098;-72
2024/01/11 09:30:28;;;;;;;53.05;32.47;;;;;;;;;;5073921;28;20036;-72
2024/01/11 09:32:54;;;;;;;55.70;31.15;;;;;;;;;;5075417;28;20074;-72
2024/01/11 09:35:20;;;;;;;51.80;31.58;;;;;;;;;;5075274;28;20090;-72
2024/01/11 09:37:46;;;;;;;50.47;31.40;;;;;;;;;;5075310;28;20379;-72
2024/01/11 09:40:13;;;;;;;51.13;32.17;;;;;;;;;;5075286;28;20044;-71
2024/01/11 09:42:39;;;;;;;57.53;34.85;;;;;;;;;;5073687;28;20055;-71
2024/01/11 09:45:08;;;;;;;53.90;32.88;;;;;;;;;;5074707;28;20405;-72
2024/01/11 09:47:36;;;;;;;57.58;33.95;;;;;;;;;;5075117;28;20036;-72
2024/01/11 09:50:03;;;;;;;51.45;32.30;;;;;;;;;;5073572;28;20040;-72
2024/01/11 09:52:31;;;;;;;53.05;31.73;;;;;;;;;;5056748;28;20052;-72
2024/01/11 09:54:58;;;;;;;58.78;31.75;;;;;;;;;;5056680;28;20044;-72
2024/01/11 09:57:29;;;;;;;54.55;33.10;;;;;;;;;;5056763;28;20083;-72
2024/01/11 09:59:56;;;;;;;49.17;31.17;;;;;;;;;;5074876;28;20044;-72
2024/01/11 10:02:23;;;;;;;50.55;32.05;;;;;;;;;;5073160;28;20127;-72
2024/01/11 10:04:52;;;;;;;49.78;31.75;;;;;;;;;;5073034;28;20047;-72
2024/01/11 10:07:20;;;;;;;50.67;33.60;;;;;;;;;;5073180;28;20040;-72
2024/01/11 10:09:46;;;;;;;49.90;31.05;;;;;;;;;;5074657;28;20041;-72
2024/01/11 10:12:12;;;;;;;57.85;32.70;;;;;;;;;;5073067;28;20048;-72
2024/01/11 10:14:38;;;;;;;52.58;31.70;;;;;;;;;;5072942;28;20040;-72
2024/01/11 10:17:05;;;;;;;51.58;32.03;;;;;;;;;;5074527;28;20040;-72
2024/01/11 10:19:31;;;;;;;52.65;31.65;;;;;;;;;;5072945;28;20062;-72
2024/01/11 10:21:58;;;;;;;46.50;30.10;;;;;;;;;;5073004;28;20040;-72
2024/01/11 10:24:26;;;;;;;48.95;31.25;;;;;;;;;;5072761;28;20123;-72
2024/01/11 10:27:01;;;;;;;49.25;30.50;;;;;;;;;;5074274;28;20047;-72
2024/01/11 10:29:36;;;;;;;48.58;30.23;;;;;;;;;;5072432;28;20040;-72
2024/01/11 10:32:03;;;;;;;46.47;30.52;;;;;;;;;;5056321;28;20040;-72
2024/01/11 10:34:29;;;;;;;53.58;30.45;;;;;;;;;;5072816;28;20386;-72
2024/01/11 10:36:56;;;;;;;48.15;30.23;;;;;;;;;;5073804;28;20500;-72
2024/01/11 10:39:26;;;;;;;46.13;28.38;;;;;;;;;;5072618;28;20051;-72
2024/01/11 10:41:53;;;;;;;51.38;30.05;;;;;;;;;;5073971;28;20101;-72
2024/01/11 10:44:21;;;;;;;46.30;28.40;;;;;;;;;;5073631;28;20504;-71
2024/01/11 10:46:48;;;;;;;45.38;28.98;;;;;;;;;;5072429;28;20044;-71
2024/01/11 10:49:18;;;;;;;46.67;29.58;;;;;;;;;;5072631;28;20123;-71
2024/01/11 10:51:54;;;;;;;44.67;27.92;;;;;;;;;;5072595;28;20454;-71
2024/01/11 10:54:20;;;;;;;46.08;29.20;;;;;;;;;;5072281;28;20131;-72
2024/01/11 10:56:47;;;;;;;42.22;28.63;;;;;;;;;;5072243;28;20036;-71
2024/01/11 10:59:13;;;;;;;45.45;29.05;;;;;;;;;;5072563;28;20124;-72
2024/01/11 11:01:39;;;;;;;45.90;28.63;;;;;;;;;;5072468;28;20275;-72
2024/01/11 11:04:07;;;;;;;44.15;28.55;;;;;;;;;;5055460;28;20068;-72
2024/01/11 11:06:35;;;;;;;43.25;27.67;;;;;;;;;;5072410;28;20036;-72
2024/01/11 11:09:03;;;;;;;44.47;27.60;;;;;;;;;;5072607;28;20041;-72
2024/01/11 11:11:31;;;;;;;43.60;28.10;;;;;;;;;;5055741;28;20090;-72
2024/01/11 11:13:59;;;;;;;37.38;25.83;;;;;;;;;;5072000;28;20120;-72
2024/01/11 11:16:26;;;;;;;42.05;26.92;;;;;;;;;;5072163;28;20028;-72
2024/01/11 11:18:55;;;;;;;43.50;28.52;;;;;;;;;;5072361;28;20044;-72
2024/01/11 11:21:22;;;;;;;41.13;26.17;;;;;;;;;;5072302;28;20052;-72
2024/01/11 11:23:49;;;;;;;37.40;25.73;;;;;;;;;;5073466;28;20048;-72
2024/01/11 11:26:16;;;;;;;42.85;27.50;;;;;;;;;;5072247;28;20476;-72
2024/01/11 11:28:42;;;;;;;40.40;26.42;;;;;;;;;;5072045;28;20445;-72
2024/01/11 11:31:11;;;;;;;45.28;27.70;;;;;;;;;;5072003;28;20170;-72
2024/01/11 11:33:37;;;;;;;45.38;28.30;;;;;;;;;;5072054;28;20569;-72
2024/01/11 11:36:03;;;;;;;43.10;27.50;;;;;;;;;;5071898;28;20123;-72
2024/01/11 11:38:31;;;;;;;41.63;27.65;;;;;;;;;;5072159;28;20509;-71
2024/01/11 11:40:58;;;;;;;41.88;27.60;;;;;;;;;;5071011;28;20049;-72
2024/01/11 11:43:26;;;;;;;42.13;26.58;;;;;;;;;;5071673;28;20097;-72
2024/01/11 11:45:53;;;;;;;36.80;24.92;;;;;;;;;;5071724;28;20041;-72
2024/01/11 11:48:39;;;;;;;38.95;26.38;;;;;;;;;;5071881;28;20040;-72
2024/01/11 11:51:15;;;;;;;43.28;27.40;;;;;;;;;;5072000;28;20170;-72
2024/01/11 11:53:42;;;;;;;42.15;25.67;;;;;;;;;;5071866;28;20505;-72
2024/01/11 11:56:10;;;;;;;45.78;27.38;;;;;;;;;;5073280;28;20040;-72
2024/01/11 11:58:36;;;;;;;40.65;26.60;;;;;;;;;;5073447;28;20047;-72
2024/01/11 12:01:03;;;;;;;45.92;28.20;;;;;;;;;;5072052;28;20409;-72
2024/01/11 12:03:33;;;;;;;39.72;26.38;;;;;;;;;;5072680;28;20051;-72
2024/01/11 12:06:00;;;;;;;43.78;28.25;;;;;;;;;;5072833;28;20470;-72
2024/01/11 12:08:27;;;;;;;41.35;26.88;;;;;;;;;;5072801;28;20493;-72
2024/01/11 12:10:53;;;;;;;39.63;25.67;;;;;;;;;;5073247;28;20044;-72
2024/01/11 12:13:20;;;;;;;40.08;26.00;;;;;;;;;;5072741;28;20517;-72
2024/01/11 12:15:46;;;;;;;44.15;27.27;;;;;;;;;;5071480;28;20051;-72
2024/01/11 12:18:12;;;;;;;40.28;25.67;;;;;;;;;;5071541;28;20051;-72
2024/01/11 12:20:38;;;;;;;41.13;26.65;;;;;;;;;;5071974;28;20044;-72
2024/01/11 12:23:04;;;;;;;38.25;25.65;;;;;;;;;;5072815;28;20094;-72
2024/01/11 12:25:31;;;;;;;42.13;26.10;;;;;;;;;;5071268;28;20047;-72
2024/01/11 12:27:57;;;;;;;40.67;26.00;;;;;;;;;;5071689;28;20039;-72
2024/01/11 12:30:24;;;;;;;39.85;24.77;;;;;;;;;;5072832;28;20078;-72
2024/01/11 12:32:50;;;;;;;38.17;25.45;;;;;;;;;;5071563;28;20052;-72
2024/01/11 12:35:17;;;;;;;38.22;24.95;;;;;;;;;;5071143;28;20561;-72
2024/01/11 12:37:55;;;;;;;39.70;24.95;;;;;;;;;;5054503;28;20040;-72
2024/01/11 12:40:27;;;;;;;40.92;24.70;;;;;;;;;;5072728;28;20041;-72
2024/01/11 12:42:53;;;;;;;45.13;27.27;;;;;;;;;;5071196;28;20047;-72
2024/01/11 12:45:19;;;;;;;44.83;27.45;;;;;;;;;;5071316;28;20056;-72
2024/01/11 12:47:45;;;;;;;41.28;26.08;;;;;;;;;;5072601;28;20405;-72
2024/01/11 12:50:12;;;;;;;45.45;27.60;;;;;;;;;;5071058;28;20047;-72
2024/01/11 12:52:38;;;;;;;42.78;26.60;;;;;;;;;;5074231;28;20051;-72
2024/01/11 12:55:05;;;;;;;41.05;26.67;;;;;;;;;;5076029;28;20041;-72
2024/01/11 12:57:33;;;;;;;47.60;27.95;;;;;;;;;;5074893;28;20083;-72
2024/01/11 13:00:10;;;;;;;46.25;27.58;;;;;;;;;;5074491;28;20119;-72
2024/01/11 13:02:36;;;;;;;55.38;29.67;;;;;;;;;;5074382;28;20048;-72
2024/01/11 13:05:02;;;;;;;51.05;28.70;;;;;;;;;;5057652;28;20120;-72
2024/01/11 13:07:28;;;;;;;54.13;30.08;;;;;;;;;;5074374;28;20040;-72
2024/01/11 13:09:54;;;;;;;55.50;30.25;;;;;;;;;;5074657;28;20036;-72
2024/01/11 13:12:20;;;;;;;51.83;29.20;;;;;;;;;;5057774;28;20520;-72
2024/01/11 13:14:47;;;;;;;46.03;27.67;;;;;;;;;;5057625;28;20044;-72
2024/01/11 13:17:13;;;;;;;45.80;27.45;;;;;;;;;;5074447;28;20148;-72
2024/01/11 13:19:39;;;;;;;54.75;30.02;;;;;;;;;;5074203;28;20127;-72
2024/01/11 13:22:05;;;;;;;53.05;28.52;;;;;;;;;;5074101;28;20119;-73
2024/01/11 13:24:31;;;;;;;43.72;27.35;;;;;;;;;;5075558;28;20037;-73
2024/01/11 13:26:57;;;;;;;52.67;29.52;;;;;;;;;;5075660;28;20072;-72
2024/01/11 13:29:23;;;;;;;47.72;27.70;;;;;;;;;;5074219;28;20150;-72
2024/01/11 13:31:49;;;;;;;49.58;28.63;;;;;;;;;;5075031;28;20047;-71
2024/01/11 13:34:15;;;;;;;61.80;30.30;;;;;;;;;;5075607;28;20054;-71
2024/01/11 13:36:41;;;;;;;54.70;29.80;;;;;;;;;;5075535;28;20075;-71
2024/01/11 13:39:08;;;;;;;50.78;28.27;;;;;;;;;;5075699;28;20497;-70
2024/01/11 13:41:34;;;;;;;55.40;29.92;;;;;;;;;;5073729;28;20498;-70
2024/01/11 13:44:00;;;;;;;58.67;31.67;;;;;;;;;;5056934;28;20043;-70
2024/01/11 13:46:26;;;;;;;56.40;30.83;;;;;;;;;;5073714;28;20123;-70
2024/01/11 13:48:53;;;;;;;59.60;31.70;;;;;;;;;;5075118;28;20046;-70
2024/01/11 13:51:18;;;;;;;52.45;30.10;;;;;;;;;;5073804;28;20041;-70
2024/01/11 13:53:46;;;;;;;56.45;30.70;;;;;;;;;;5073373;28;20524;-70
2024/01/11 13:56:12;;;;;;;57.88;30.83;;;;;;;;;;5073900;28;20572;-71
2024/01/11 13:58:39;;;;;;;61.17;31.58;;;;;;;;;;5074015;28;20036;-71
2024/01/11 14:01:05;;;;;;;52.30;29.58;;;;;;;;;;5075008;28;20040;-71
2024/01/11 14:03:31;;;;;;;49.33;29.58;;;;;;;;;;5072536;28;20477;-71
2024/01/11 14:05:57;;;;;;;57.97;30.73;;;;;;;;;;5073527;28;20036;-71
2024/01/11 14:08:23;;;;;;;54.78;30.08;;;;;;;;;;5073635;28;20036;-71
2024/01/11 14:10:49;;;;;;;53.53;30.33;;;;;;;;;;5074798;28;20047;-71
2024/01/11 14:13:15;;;;;;;55.22;30.58;;;;;;;;;;5074632;28;20043;-71